createdAt,value
2018-04-21T17:49:39.188Z,22.40
2018-04-21T17:52:08.232Z,22.40
2018-04-21T17:54:36.484Z,22.30
2018-04-21T17:57:04.843Z,22.30
2018-04-21T17:59:33.884Z,22.20
2018-04-21T18:02:02.113Z,22.20
2018-04-21T18:04:30.338Z,22.20
2018-04-21T18:06:58.553Z,22.10
2018-04-21T18:09:27.523Z,21.90
2018-04-21T18:11:55.853Z,21.90
2018-04-21T18:14:24.147Z,21.90
2018-04-21T18:16:52.529Z,21.90
2018-04-21T18:19:20.787Z,21.80
2018-04-21T18:21:49.235Z,21.70
2018-04-21T18:24:18.237Z,21.50
2018-04-21T18:26:47.228Z,21.40
2018-04-21T18:29:16.695Z,21.40
2018-04-21T18:31:44.951Z,21.40
2018-04-21T18:34:13.205Z,21.40
2018-04-21T18:36:42.268Z,21.30
2018-04-21T18:39:10.545Z,21.30
2018-04-21T18:41:39.557Z,21.20
2018-04-21T18:44:07.875Z,21.20
2018-04-21T18:46:36.151Z,21.10
2018-04-21T18:49:04.401Z,21.10
2018-04-21T18:51:35.211Z,21.10
2018-04-21T18:54:03.489Z,21.00
2018-04-21T18:56:32.576Z,20.80
2018-04-21T18:59:01.593Z,20.80
2018-04-21T19:01:29.954Z,20.80
2018-04-21T19:03:58.204Z,20.80
2018-04-21T19:06:26.606Z,20.80
2018-04-21T19:08:54.923Z,20.70
2018-04-21T19:11:23.307Z,20.60
2018-04-21T19:13:51.659Z,20.60
2018-04-21T19:16:20.661Z,20.50
2018-04-21T19:21:23.781Z,20.40
2018-04-21T19:23:52.091Z,20.40
2018-04-21T19:26:21.311Z,20.20
2018-04-21T19:28:49.622Z,20.20
2018-04-21T19:31:17.907Z,20.20
2018-04-21T19:33:46.167Z,20.10
2018-04-21T19:36:14.559Z,20.00
2018-04-21T19:38:42.857Z,20.00
2018-04-21T19:41:11.072Z,20.00
2018-04-21T19:43:40.092Z,20.00
2018-04-21T19:46:08.405Z,19.90
2018-04-21T19:48:36.688Z,20.00
2018-04-21T19:51:04.969Z,19.90
2018-04-21T19:53:33.212Z,19.90
2018-04-21T19:56:01.472Z,19.80
2018-04-21T19:58:30.447Z,19.70
2018-04-21T20:00:59.776Z,19.70
2018-04-21T20:03:28.388Z,19.70
2018-04-21T20:05:56.728Z,19.60
2018-04-21T20:08:25.025Z,19.50
2018-04-21T20:10:54.339Z,19.40
2018-04-21T20:13:23.029Z,19.40
2018-04-21T20:15:51.310Z,19.30
2018-04-21T20:18:19.687Z,19.20
2018-04-21T20:20:48.872Z,19.10
2018-04-21T20:23:17.241Z,19.10
2018-04-21T20:25:45.736Z,19.10
2018-04-21T20:28:14.008Z,19.00
2018-04-21T20:30:42.263Z,19.00
2018-04-21T20:33:10.653Z,18.90
2018-04-21T20:35:39.663Z,19.00
2018-04-21T20:38:07.899Z,18.90
2018-04-21T20:40:37.045Z,18.80
2018-04-21T20:43:05.369Z,18.80
2018-04-21T20:45:33.789Z,18.80
2018-04-21T20:48:01.980Z,18.70
2018-04-21T20:50:30.293Z,18.60
2018-04-21T20:52:58.611Z,18.40
2018-04-21T20:55:27.672Z,18.40
2018-04-21T20:57:55.996Z,18.40
2018-04-21T21:00:24.271Z,18.40
2018-04-21T21:02:52.481Z,18.30
2018-04-21T21:05:22.148Z,18.30
2018-04-21T21:07:50.515Z,18.20
2018-04-21T21:10:18.731Z,18.10
2018-04-21T21:12:46.967Z,18.10
2018-04-21T21:15:15.232Z,17.90
2018-04-21T21:17:43.454Z,18.00
2018-04-21T21:20:11.703Z,17.90
2018-04-21T21:22:40.187Z,17.80
2018-04-21T21:25:08.544Z,17.70
2018-04-21T21:27:41.254Z,17.70
2018-04-21T21:30:09.571Z,17.70
2018-04-21T21:32:37.844Z,17.70
2018-04-21T21:35:06.109Z,17.70
2018-04-21T21:37:34.408Z,17.70
2018-04-21T21:40:02.689Z,17.60
2018-04-21T21:42:31.787Z,17.50
2018-04-21T21:45:00.151Z,17.50
2018-04-21T21:47:28.456Z,17.40
2018-04-21T21:49:57.588Z,17.20
2018-04-21T21:52:26.028Z,17.20
2018-04-21T21:54:54.998Z,17.10
2018-04-21T21:57:23.220Z,17.10
2018-04-21T21:59:51.439Z,17.10
2018-04-21T22:02:19.651Z,17.00
2018-04-21T22:04:48.644Z,16.90
2018-04-21T22:07:22.513Z,16.90
2018-04-21T22:09:51.083Z,16.80
2018-04-21T22:12:19.454Z,16.90
2018-04-21T22:14:47.835Z,16.80
2018-04-21T22:17:16.132Z,16.80
2018-04-21T22:19:44.512Z,16.80
2018-04-21T22:22:12.735Z,16.80
2018-04-21T22:24:41.224Z,16.70
2018-04-21T22:27:09.434Z,16.80
2018-04-21T22:29:37.687Z,16.70
2018-04-21T22:32:06.076Z,16.70
2018-04-21T22:34:34.675Z,16.50
2018-04-21T22:37:02.972Z,16.40
2018-04-21T22:39:31.548Z,16.30
2018-04-21T22:42:00.045Z,16.20
2018-04-21T22:44:28.265Z,16.20
2018-04-21T22:46:56.598Z,16.30
2018-04-21T22:49:25.687Z,16.20
2018-04-21T22:51:54.882Z,16.10
2018-04-21T22:54:23.722Z,16.10
2018-04-21T22:56:52.233Z,16.10
2018-04-21T22:59:20.535Z,16.00
2018-04-21T23:01:49.821Z,16.10
2018-04-21T23:04:18.313Z,16.00
2018-04-21T23:06:46.655Z,16.00
2018-04-21T23:09:15.092Z,16.00
2018-04-21T23:11:43.555Z,16.00
2018-04-21T23:14:12.079Z,16.00
2018-04-21T23:16:41.528Z,16.00
2018-04-21T23:19:09.849Z,15.90
2018-04-21T23:21:38.885Z,15.90
2018-04-21T23:24:07.258Z,15.90
2018-04-21T23:26:35.559Z,15.80
2018-04-21T23:29:03.984Z,15.80
2018-04-21T23:31:33.525Z,15.70
2018-04-21T23:34:01.812Z,15.60
2018-04-21T23:36:30.061Z,15.60
2018-04-21T23:38:58.406Z,15.50
2018-04-21T23:41:26.622Z,15.40
2018-04-21T23:43:54.920Z,15.40
2018-04-21T23:46:23.342Z,15.30
2018-04-21T23:48:51.645Z,15.30
2018-04-21T23:51:19.871Z,15.30
2018-04-21T23:53:48.253Z,15.30
2018-04-21T23:56:16.545Z,15.20
2018-04-21T23:58:45.599Z,15.10
